Anna G. — 3FXC9 — position and weather

sailwx.info

Track history (hours):
 
Tides and Currents Weather Stations Pressure Air Temp Water Temp Dewpoint Dewpoint Depression Visibility Wind Speed Wind Dir Waves Ship Positions

Anna G.

Last reported at 2017-Nov-14 22:39 UTC. Time now 2017-Nov-20 04:12 UTC.
Position N 36°52' W 075°51'.

Length 229 m; draft 14.5 m.

Type: Cargo ship. MMSI: 352358000.

Date/timePositionNaut miles runAvg speedWind from/ knotsBaromVisibWave heightAir tempDewpointWater temp
2017-Nov-14 22:39N 36°52' W 075°51'1 9.4
2017-Nov-14 22:30N 36°52' W 075°52'4 8.8
2017-Nov-14 22:00N 36°55' W 075°56'4 7.9
2017-Nov-14 21:30N 36°57' W 076°01'4 7.9
2017-Nov-14 21:00N 36°58' W 076°05'4 8.3
2017-Nov-14 20:30N 36°59' W 076°10'4 8.7
2017-Nov-14 20:00N 37°00' W 076°16'4 8.5
2017-Nov-14 19:30N 36°58' W 076°20'4 7.4
2017-Nov-14 18:59N 36°57' W 076°25'1 0.1
2017-Nov-14 10:21N 36°58' W 076°25'0 0.0
2017-Nov-13 02:00N 36°58' W 076°25'0 0.0
2017-Nov-13 01:30N 36°58' W 076°25'0 0.0
2017-Nov-13 01:00N 36°58' W 076°25'0 0.0
2017-Nov-13 00:18N 36°58' W 076°25'0 0.0
2017-Nov-12 23:57N 36°58' W 076°25'0 0.0
2017-Nov-12 23:30N 36°58' W 076°25'0 0.0
2017-Nov-12 22:57N 36°58' W 076°25'0 0.0
2017-Nov-12 22:30N 36°58' W 076°25'0 0.0
2017-Nov-12 22:00N 36°58' W 076°25'0 0.0
2017-Nov-12 21:30N 36°58' W 076°25'0 0.0
2017-Nov-12 19:57N 36°58' W 076°25'0 0.0
2017-Nov-12 19:30N 36°58' W 076°25'0 0.0
2017-Nov-12 19:00N 36°58' W 076°25'0 0.0
2017-Nov-12 18:27N 36°58' W 076°25'0 0.0
2017-Nov-12 18:00N 36°58' W 076°25'0 0.0
2017-Nov-12 17:30N 36°58' W 076°25'0 0.0
2017-Nov-12 16:57N 36°58' W 076°25'0 0.0
2017-Nov-12 16:30N 36°58' W 076°25'0 0.0
2017-Nov-12 16:00N 36°58' W 076°25'0 0.0
2017-Nov-12 15:30N 36°58' W 076°25'0 0.0
2017-Nov-12 14:48N 36°58' W 076°25'0 0.0
2017-Nov-12 14:30N 36°58' W 076°25'0 0.0
2017-Nov-12 14:00N 36°58' W 076°25'0 0.0
2017-Nov-12 13:30N 36°58' W 076°25'0 0.0
2017-Nov-12 12:57N 36°58' W 076°25'0 0.0
2017-Nov-12 12:27N 36°58' W 076°25'0 0.0
2017-Nov-12 12:00N 36°58' W 076°25'0 0.0
2017-Nov-12 11:30N 36°58' W 076°25'0 0.1
2017-Nov-12 11:00N 36°58' W 076°25'2 3.8
2017-Nov-12 10:29N 36°57' W 076°23'3 6.9
2017-Nov-12 10:00N 36°59' W 076°19'6 9.3
2017-Nov-12 09:24N 37°00' W 076°13'4 9.6
2017-Nov-12 08:58N 36°59' W 076°08'511.3
2017-Nov-12 08:30N 36°57' W 076°01'3 5.3
2017-Nov-12 08:00N 37°00' W 076°01'5 9.6
2017-Nov-12 07:30N 37°04' W 076°05'8 0.4
2017-Nov-11 13:44N 37°12' W 076°07'0 0.0
2017-Nov-11 13:20N 37°12' W 076°07'0 0.0
2017-Nov-11 12:50N 37°12' W 076°07'0 0.0
2017-Nov-11 12:28N 37°12' W 076°07'0 0.0
2017-Nov-11 11:59N 37°12' W 076°07'0 0.0
2017-Nov-11 09:47N 37°12' W 076°07'0 0.0
2017-Nov-11 09:29N 37°12' W 076°07'0 0.0
2017-Nov-11 08:56N 37°12' W 076°07'0 0.0
2017-Nov-11 08:23N 37°12' W 076°07'0 0.0
2017-Nov-11 07:59N 37°12' W 076°07'0 0.0
2017-Nov-11 07:29N 37°12' W 076°07'0 0.0
2017-Nov-11 06:53N 37°12' W 076°07'0 0.0
2017-Nov-11 06:29N 37°12' W 076°07'0 0.1
2017-Nov-11 05:59N 37°12' W 076°07'0 0.1
2017-Nov-11 05:23N 37°12' W 076°07'0 0.1
2017-Nov-11 04:59N 37°12' W 076°07'0 0.0
2017-Nov-11 04:11N 37°12' W 076°07'0 0.0
2017-Nov-11 03:52N 37°12' W 076°07'0 0.0
2017-Nov-11 03:26N 37°12' W 076°07'0 0.0
2017-Nov-11 02:59N 37°12' W 076°07'0 0.0
2017-Nov-11 01:35N 37°12' W 076°07'0 0.3
2017-Nov-11 01:29N 37°12' W 076°07'0 0.0
2017-Nov-11 00:56N 37°12' W 076°07'0 0.0
2017-Nov-11 00:29N 37°12' W 076°07'0 0.0
2017-Nov-10 23:59N 37°12' W 076°07'0 0.1
2017-Nov-10 23:28N 37°12' W 076°07'0 0.0
2017-Nov-10 22:11N 37°12' W 076°06'0 0.1
2017-Nov-10 21:59N 37°12' W 076°07'0 0.1
2017-Nov-10 21:29N 37°12' W 076°07'0 0.0
2017-Nov-10 20:59N 37°12' W 076°07'0 0.1
2017-Nov-10 20:29N 37°12' W 076°06'0 0.2
2017-Nov-10 19:59N 37°12' W 076°07'0 0.1
2017-Nov-10 19:29N 37°12' W 076°06'0 0.1
2017-Nov-10 18:59N 37°12' W 076°07'0 0.1
2017-Nov-10 18:29N 37°12' W 076°06'0 0.1
2017-Nov-10 17:59N 37°12' W 076°07'0 0.1
2017-Nov-10 17:25N 37°12' W 076°07'0 0.1
2017-Nov-10 16:59N 37°12' W 076°07'0 0.1
2017-Nov-10 16:08N 37°12' W 076°07'0 0.4
2017-Nov-10 15:59N 37°12' W 076°06'0 0.1
2017-Nov-10 15:23N 37°12' W 076°07'0 0.0
2017-Nov-10 14:55N 37°12' W 076°07'0 0.0
2017-Nov-10 14:29N 37°12' W 076°07'0 0.1
2017-Nov-10 13:55N 37°12' W 076°06'0 0.0
2017-Nov-10 13:29N 37°12' W 076°07'0 0.0
2017-Nov-10 12:52N 37°12' W 076°07'0 0.0
2017-Nov-10 12:29N 37°12' W 076°06'0 0.1
2017-Nov-10 11:58N 37°12' W 076°07'0 0.0
2017-Nov-10 11:25N 37°12' W 076°07'0 0.0
2017-Nov-10 10:55N 37°12' W 076°07'0 0.0
2017-Nov-10 10:22N 37°12' W 076°07'0 0.0
2017-Nov-10 09:58N 37°12' W 076°07'0 0.0
2017-Nov-10 09:25N 37°12' W 076°06'0 0.1
2017-Nov-10 08:58N 37°12' W 076°06'0 0.0
2017-Nov-10 08:25N 37°12' W 076°06'0 0.1
2017-Nov-10 07:58N 37°12' W 076°06'0 0.0
2017-Nov-10 07:28N 37°12' W 076°06'0 0.1
2017-Nov-10 06:58N 37°12' W 076°06'0 0.3
2017-Nov-10 06:28N 37°12' W 076°07'0 0.2
2017-Nov-10 05:58N 37°12' W 076°07'0 0.0
2017-Nov-10 05:29N 37°12' W 076°07'0 0.0
2017-Nov-10 03:49N 37°12' W 076°07'0 0.0
2017-Nov-10 03:28N 37°12' W 076°07'0 0.0
2017-Nov-10 02:58N 37°12' W 076°07'0 0.0
2017-Nov-10 02:29N 37°12' W 076°07'0 0.0
2017-Nov-10 01:58N 37°12' W 076°07'0 0.0
2017-Nov-10 01:28N 37°12' W 076°07'0 0.0
2017-Nov-10 00:52N 37°12' W 076°07'0 0.0
2017-Nov-10 00:25N 37°12' W 076°07'0 0.0
2017-Nov-09 23:58N 37°12' W 076°07'0 0.0
2017-Nov-09 23:28N 37°12' W 076°07'0 0.0
2017-Nov-09 14:46N 37°12' W 076°07'11 1.2
2017-Nov-09 05:41N 37°01' W 076°03'314.7
2017-Nov-09 05:30N 36°59' W 076°01'511.0
2017-Nov-09 05:00N 36°56' W 075°56'4 8.6
2017-Nov-09 04:31N 36°53' W 075°52'  
Track history (hours):
 
Tides and Currents Weather Stations Pressure Air Temp Water Temp Dewpoint Dewpoint Depression Visibility Wind Speed Wind Dir Waves Ship Positions

Anna G.

Last reported at 2017-Nov-14 22:39 UTC. Time now 2017-Nov-20 04:12 UTC.
Position N 36°52' W 075°51'.

Length 229 m; draft 14.5 m.

Type: Cargo ship. MMSI: 352358000.

Date/timePositionNaut miles runAvg speedWind from/ knotsBaromVisibWave heightAir tempDewpointWater temp
2017-Nov-14 22:39N 36°52' W 075°51'1 9.4
2017-Nov-14 22:30N 36°52' W 075°52'4 8.8
2017-Nov-14 22:00N 36°55' W 075°56'4 7.9
2017-Nov-14 21:30N 36°57' W 076°01'4 7.9
2017-Nov-14 21:00N 36°58' W 076°05'4 8.3
2017-Nov-14 20:30N 36°59' W 076°10'4 8.7
2017-Nov-14 20:00N 37°00' W 076°16'4 8.5
2017-Nov-14 19:30N 36°58' W 076°20'4 7.4
2017-Nov-14 18:59N 36°57' W 076°25'1 0.1
2017-Nov-14 10:21N 36°58' W 076°25'0 0.0
2017-Nov-13 02:00N 36°58' W 076°25'0 0.0
2017-Nov-13 01:30N 36°58' W 076°25'0 0.0
2017-Nov-13 01:00N 36°58' W 076°25'0 0.0
2017-Nov-13 00:18N 36°58' W 076°25'0 0.0
2017-Nov-12 23:57N 36°58' W 076°25'0 0.0
2017-Nov-12 23:30N 36°58' W 076°25'0 0.0
2017-Nov-12 22:57N 36°58' W 076°25'0 0.0
2017-Nov-12 22:30N 36°58' W 076°25'0 0.0
2017-Nov-12 22:00N 36°58' W 076°25'0 0.0
2017-Nov-12 21:30N 36°58' W 076°25'0 0.0
2017-Nov-12 19:57N 36°58' W 076°25'0 0.0
2017-Nov-12 19:30N 36°58' W 076°25'0 0.0
2017-Nov-12 19:00N 36°58' W 076°25'0 0.0
2017-Nov-12 18:27N 36°58' W 076°25'0 0.0
2017-Nov-12 18:00N 36°58' W 076°25'0 0.0
2017-Nov-12 17:30N 36°58' W 076°25'0 0.0
2017-Nov-12 16:57N 36°58' W 076°25'0 0.0
2017-Nov-12 16:30N 36°58' W 076°25'0 0.0
2017-Nov-12 16:00N 36°58' W 076°25'0 0.0
2017-Nov-12 15:30N 36°58' W 076°25'0 0.0
2017-Nov-12 14:48N 36°58' W 076°25'0 0.0
2017-Nov-12 14:30N 36°58' W 076°25'0 0.0
2017-Nov-12 14:00N 36°58' W 076°25'0 0.0
2017-Nov-12 13:30N 36°58' W 076°25'0 0.0
2017-Nov-12 12:57N 36°58' W 076°25'0 0.0
2017-Nov-12 12:27N 36°58' W 076°25'0 0.0
2017-Nov-12 12:00N 36°58' W 076°25'0 0.0
2017-Nov-12 11:30N 36°58' W 076°25'0 0.1
2017-Nov-12 11:00N 36°58' W 076°25'2 3.8
2017-Nov-12 10:29N 36°57' W 076°23'3 6.9
2017-Nov-12 10:00N 36°59' W 076°19'6 9.3
2017-Nov-12 09:24N 37°00' W 076°13'4 9.6
2017-Nov-12 08:58N 36°59' W 076°08'511.3
2017-Nov-12 08:30N 36°57' W 076°01'3 5.3
2017-Nov-12 08:00N 37°00' W 076°01'5 9.6
2017-Nov-12 07:30N 37°04' W 076°05'8 0.4
2017-Nov-11 13:44N 37°12' W 076°07'0 0.0
2017-Nov-11 13:20N 37°12' W 076°07'0 0.0
2017-Nov-11 12:50N 37°12' W 076°07'0 0.0
2017-Nov-11 12:28N 37°12' W 076°07'0 0.0
2017-Nov-11 11:59N 37°12' W 076°07'0 0.0
2017-Nov-11 09:47N 37°12' W 076°07'0 0.0
2017-Nov-11 09:29N 37°12' W 076°07'0 0.0
2017-Nov-11 08:56N 37°12' W 076°07'0 0.0
2017-Nov-11 08:23N 37°12' W 076°07'0 0.0
2017-Nov-11 07:59N 37°12' W 076°07'0 0.0
2017-Nov-11 07:29N 37°12' W 076°07'0 0.0
2017-Nov-11 06:53N 37°12' W 076°07'0 0.0
2017-Nov-11 06:29N 37°12' W 076°07'0 0.1
2017-Nov-11 05:59N 37°12' W 076°07'0 0.1
2017-Nov-11 05:23N 37°12' W 076°07'0 0.1
2017-Nov-11 04:59N 37°12' W 076°07'0 0.0
2017-Nov-11 04:11N 37°12' W 076°07'0 0.0
2017-Nov-11 03:52N 37°12' W 076°07'0 0.0
2017-Nov-11 03:26N 37°12' W 076°07'0 0.0
2017-Nov-11 02:59N 37°12' W 076°07'0 0.0
2017-Nov-11 01:35N 37°12' W 076°07'0 0.3
2017-Nov-11 01:29N 37°12' W 076°07'0 0.0
2017-Nov-11 00:56N 37°12' W 076°07'0 0.0
2017-Nov-11 00:29N 37°12' W 076°07'0 0.0
2017-Nov-10 23:59N 37°12' W 076°07'0 0.1
2017-Nov-10 23:28N 37°12' W 076°07'0 0.0
2017-Nov-10 22:11N 37°12' W 076°06'0 0.1
2017-Nov-10 21:59N 37°12' W 076°07'0 0.1
2017-Nov-10 21:29N 37°12' W 076°07'0 0.0
2017-Nov-10 20:59N 37°12' W 076°07'0 0.1
2017-Nov-10 20:29N 37°12' W 076°06'0 0.2
2017-Nov-10 19:59N 37°12' W 076°07'0 0.1
2017-Nov-10 19:29N 37°12' W 076°06'0 0.1
2017-Nov-10 18:59N 37°12' W 076°07'0 0.1
2017-Nov-10 18:29N 37°12' W 076°06'0 0.1
2017-Nov-10 17:59N 37°12' W 076°07'0 0.1
2017-Nov-10 17:25N 37°12' W 076°07'0 0.1
2017-Nov-10 16:59N 37°12' W 076°07'0 0.1
2017-Nov-10 16:08N 37°12' W 076°07'0 0.4
2017-Nov-10 15:59N 37°12' W 076°06'0 0.1
2017-Nov-10 15:23N 37°12' W 076°07'0 0.0
2017-Nov-10 14:55N 37°12' W 076°07'0 0.0
2017-Nov-10 14:29N 37°12' W 076°07'0 0.1
2017-Nov-10 13:55N 37°12' W 076°06'0 0.0
2017-Nov-10 13:29N 37°12' W 076°07'0 0.0
2017-Nov-10 12:52N 37°12' W 076°07'0 0.0
2017-Nov-10 12:29N 37°12' W 076°06'0 0.1
2017-Nov-10 11:58N 37°12' W 076°07'0 0.0
2017-Nov-10 11:25N 37°12' W 076°07'0 0.0
2017-Nov-10 10:55N 37°12' W 076°07'0 0.0
2017-Nov-10 10:22N 37°12' W 076°07'0 0.0
2017-Nov-10 09:58N 37°12' W 076°07'0 0.0
2017-Nov-10 09:25N 37°12' W 076°06'0 0.1
2017-Nov-10 08:58N 37°12' W 076°06'0 0.0
2017-Nov-10 08:25N 37°12' W 076°06'0 0.1
2017-Nov-10 07:58N 37°12' W 076°06'0 0.0
2017-Nov-10 07:28N 37°12' W 076°06'0 0.1
2017-Nov-10 06:58N 37°12' W 076°06'0 0.3
2017-Nov-10 06:28N 37°12' W 076°07'0 0.2
2017-Nov-10 05:58N 37°12' W 076°07'0 0.0
2017-Nov-10 05:29N 37°12' W 076°07'0 0.0
2017-Nov-10 03:49N 37°12' W 076°07'0 0.0
2017-Nov-10 03:28N 37°12' W 076°07'0 0.0
2017-Nov-10 02:58N 37°12' W 076°07'0 0.0
2017-Nov-10 02:29N 37°12' W 076°07'0 0.0
2017-Nov-10 01:58N 37°12' W 076°07'0 0.0
2017-Nov-10 01:28N 37°12' W 076°07'0 0.0
2017-Nov-10 00:52N 37°12' W 076°07'0 0.0
2017-Nov-10 00:25N 37°12' W 076°07'0 0.0
2017-Nov-09 23:58N 37°12' W 076°07'0 0.0
2017-Nov-09 23:28N 37°12' W 076°07'0 0.0
2017-Nov-09 14:46N 37°12' W 076°07'11 1.2
2017-Nov-09 05:41N 37°01' W 076°03'314.7
2017-Nov-09 05:30N 36°59' W 076°01'511.0
2017-Nov-09 05:00N 36°56' W 075°56'4 8.6
2017-Nov-09 04:31N 36°53' W 075°52'  

Dump ship's entire track history